Time;durP1;ratioP1;P1;durP2;ratioP2;P2;SDS_P1;SDS_P2;PMS_P1;PMS_P2;Temp;Humidity;BMP_temperature;BMP_pressure;BME280_temperature;BME280_humidity;BME280_pressure;Samples;Min_cycle;Max_cycle;Signal;HPM_P1;HPM_P2
2021/04/04 00:01:13;;;;;;;1.55;1.20;;;9.70;72.50;;;;;;5046946;28;20108;-61
2021/04/04 00:03:39;;;;;;;3.03;1.40;;;9.60;72.70;;;;;;5046697;28;20033;-63
2021/04/04 00:06:05;;;;;;;2.33;1.38;;;9.70;72.30;;;;;;5046876;28;20044;-63
2021/04/04 00:08:31;;;;;;;1.92;1.20;;;9.80;72.20;;;;;;5045961;28;20462;-63
2021/04/04 00:10:58;;;;;;;3.13;1.02;;;9.60;72.50;;;;;;5046505;28;20115;-63
2021/04/04 00:13:23;;;;;;;1.60;1.10;;;9.70;72.50;;;;;;5046675;28;20465;-63
2021/04/04 00:15:49;;;;;;;2.10;1.40;;;9.50;72.80;;;;;;5045970;28;20060;-63
2021/04/04 00:18:15;;;;;;;1.77;1.23;;;9.50;73.10;;;;;;5045946;28;20059;-63
2021/04/04 00:20:40;;;;;;;3.83;1.60;;;9.40;73.20;;;;;;5045915;28;20061;-63
2021/04/04 00:23:06;;;;;;;2.90;1.55;;;9.40;74.80;;;;;;5047201;28;20033;-63
2021/04/04 00:25:32;;;;;;;3.10;1.63;;;9.20;76.70;;;;;;5065216;28;20036;-63
2021/04/04 00:27:58;;;;;;;1.95;1.50;;;9.10;78.40;;;;;;5058222;28;20041;-63
2021/04/04 00:30:24;;;;;;;3.17;1.63;;;9.00;79.80;;;;;;5046796;28;20029;-63
2021/04/04 00:32:50;;;;;;;3.20;1.50;;;8.80;81.00;;;;;;5046916;28;20174;-63
2021/04/04 00:35:19;;;;;;;2.67;1.48;;;8.80;81.30;;;;;;5048047;28;20244;-64
2021/04/04 00:37:50;;;;;;;2.92;1.40;;;8.80;81.20;;;;;;5046732;28;20033;-64
2021/04/04 00:40:18;;;;;;;3.85;1.30;;;8.90;78.80;;;;;;5045288;28;20025;-64
2021/04/04 00:42:45;;;;;;;2.53;1.45;;;9.20;77.60;;;;;;5046638;28;20029;-64
2021/04/04 00:45:26;;;;;;;2.17;1.45;;;9.20;76.10;;;;;;5046979;28;20032;-64
2021/04/04 00:47:52;;;;;;;2.13;1.25;;;9.10;77.00;;;;;;5046810;28;20033;-64
2021/04/04 00:50:21;;;;;;;2.55;1.60;;;9.20;78.00;;;;;;5046551;28;20040;-64
2021/04/04 00:52:48;;;;;;;4.30;1.73;;;9.00;79.10;;;;;;5046336;28;20029;-64
2021/04/04 00:55:15;;;;;;;1.90;1.40;;;9.00;80.50;;;;;;5046359;28;20108;-64
2021/04/04 00:57:43;;;;;;;4.13;1.60;;;9.00;80.70;;;;;;5045736;28;20398;-64
2021/04/04 01:00:16;;;;;;;2.08;1.60;;;9.10;79.80;;;;;;5046917;28;20025;-64
2021/04/04 01:02:44;;;;;;;1.67;1.40;;;9.20;79.20;;;;;;5044878;28;20033;-64
2021/04/04 01:05:13;;;;;;;2.83;1.67;;;9.00;80.90;;;;;;5044889;28;20029;-64
2021/04/04 01:07:42;;;;;;;2.40;1.27;;;8.90;80.20;;;;;;5045755;28;20037;-64
2021/04/04 01:10:08;;;;;;;2.30;1.42;;;8.90;80.70;;;;;;5046373;28;20577;-64
2021/04/04 01:12:51;;;;;;;2.05;1.30;;;8.90;80.80;;;;;;5045408;28;20025;-64
2021/04/04 01:15:29;;;;;;;2.33;1.33;;;8.90;79.40;;;;;;5046080;28;20109;-65
2021/04/04 01:17:57;;;;;;;3.30;1.73;;;9.20;78.50;;;;;;5046210;28;20360;-64
2021/04/04 01:20:28;;;;;;;2.17;1.30;;;9.00;79.50;;;;;;5045254;28;20024;-64
2021/04/04 01:23:32;;;;;;;2.13;1.60;;;8.80;80.70;;;;;;5045774;28;20487;-64
2021/04/04 01:26:12;;;;;;;4.20;1.50;;;8.80;80.80;;;;;;5055472;28;20037;-64
2021/04/04 01:28:38;;;;;;;2.45;1.73;;;8.70;82.20;;;;;;5045424;28;20021;-65
2021/04/04 01:31:07;;;;;;;3.83;1.73;;;8.70;82.30;;;;;;5045269;28;20025;-64
2021/04/04 01:33:36;;;;;;;3.60;1.92;;;8.50;82.90;;;;;;5044161;28;20025;-64
2021/04/04 01:36:05;;;;;;;2.65;1.33;;;8.50;81.70;;;;;;5046043;28;20388;-64
2021/04/04 01:38:33;;;;;;;2.13;1.40;;;8.50;80.60;;;;;;5046142;28;20029;-64
2021/04/04 01:41:21;;;;;;;3.13;1.48;;;8.40;80.00;;;;;;5044488;28;20099;-64
2021/04/04 01:43:48;;;;;;;2.10;1.50;;;8.40;80.00;;;;;;5045698;28;20525;-64
2021/04/04 01:46:15;;;;;;;2.13;1.50;;;8.20;80.40;;;;;;5046325;28;20037;-64
2021/04/04 01:48:43;;;;;;;2.30;1.42;;;8.10;81.60;;;;;;5046036;28;20025;-64
2021/04/04 01:51:12;;;;;;;3.65;1.60;;;8.10;82.90;;;;;;5047202;28;20079;-63
2021/04/04 01:53:40;;;;;;;2.17;1.17;;;8.10;81.70;;;;;;5045567;28;20032;-64
2021/04/04 01:56:07;;;;;;;2.60;1.35;;;8.00;81.20;;;;;;5046238;28;20025;-64
2021/04/04 01:58:33;;;;;;;1.75;1.15;;;8.00;81.00;;;;;;5046772;28;20482;-64
2021/04/04 02:01:01;;;;;;;1.63;1.30;;;8.00;80.70;;;;;;5047006;28;20021;-64
2021/04/04 02:03:28;;;;;;;2.17;1.17;;;8.10;80.40;;;;;;5046411;28;20120;-64
2021/04/04 02:05:55;;;;;;;1.92;1.17;;;8.10;80.40;;;;;;5046517;28;20539;-64
2021/04/04 02:08:22;;;;;;;2.67;1.42;;;8.10;80.20;;;;;;5046520;28;20085;-64
2021/04/04 02:10:49;;;;;;;3.05;1.23;;;8.00;80.70;;;;;;5046491;28;20599;-64
2021/04/04 02:13:16;;;;;;;4.68;1.50;;;7.90;81.20;;;;;;5046835;28;20029;-64
2021/04/04 02:15:43;;;;;;;1.90;1.00;;;7.80;82.30;;;;;;5046896;28;20032;-64
2021/04/04 02:18:10;;;;;;;2.20;1.38;;;7.90;82.60;;;;;;5044794;28;20037;-64
2021/04/04 02:20:38;;;;;;;1.70;1.23;;;7.90;82.10;;;;;;5045928;28;20066;-64
2021/04/04 02:23:07;;;;;;;1.48;1.17;;;7.90;82.00;;;;;;5045146;28;20465;-64
2021/04/04 02:25:33;;;;;;;3.63;1.65;;;7.90;81.60;;;;;;5046485;28;20607;-64
2021/04/04 02:27:59;;;;;;;1.40;1.20;;;7.90;81.50;;;;;;5046538;28;20125;-64
2021/04/04 02:30:26;;;;;;;1.80;1.10;;;7.80;81.40;;;;;;5046562;28;20047;-64
2021/04/04 02:33:05;;;;;;;3.38;1.27;;;7.80;83.00;;;;;;5046218;28;20123;-64
2021/04/04 02:35:34;;;;;;;2.30;1.50;;;7.70;84.30;;;;;;5046018;28;20024;-64
2021/04/04 02:38:02;;;;;;;3.55;1.50;;;7.80;83.40;;;;;;5046289;28;20029;-64
2021/04/04 02:40:28;;;;;;;3.05;1.20;;;7.70;85.70;;;;;;5045539;28;20014;-64
2021/04/04 02:42:55;;;;;;;3.00;1.70;;;7.70;86.30;;;;;;5066362;28;20027;-64
2021/04/04 02:45:25;;;;;;;2.80;1.10;;;7.70;84.90;;;;;;5066436;28;20035;-64
2021/04/04 02:48:05;;;;;;;2.42;1.40;;;7.70;85.10;;;;;;5058428;28;20021;-64
2021/04/04 02:50:33;;;;;;;4.03;1.73;;;7.70;85.50;;;;;;5045970;28;20021;-64
2021/04/04 02:53:01;;;;;;;3.55;1.42;;;7.60;85.20;;;;;;5046039;28;20018;-64
2021/04/04 02:55:35;;;;;;;3.38;1.20;;;7.50;86.30;;;;;;5045153;28;20056;-63
2021/04/04 02:58:04;;;;;;;2.40;1.40;;;7.40;87.20;;;;;;5046289;28;20487;-63
2021/04/04 03:00:31;;;;;;;1.50;1.35;;;7.40;86.60;;;;;;5052108;28;20060;-64
2021/04/04 03:02:58;;;;;;;1.95;1.35;;;7.50;85.60;;;;;;5065584;28;20422;-63
2021/04/04 03:05:26;;;;;;;2.92;1.52;;;7.50;85.80;;;;;;5065554;28;20017;-64
2021/04/04 03:07:53;;;;;;;2.65;1.40;;;7.50;86.30;;;;;;5063959;28;20043;-63
2021/04/04 03:10:18;;;;;;;5.72;2.03;;;7.30;89.00;;;;;;5065432;28;20128;-64
2021/04/04 03:12:47;;;;;;;4.55;2.15;;;7.20;90.80;;;;;;5065708;28;20088;-64
2021/04/04 03:15:15;;;;;;;4.53;1.88;;;7.10;91.80;;;;;;5066675;28;20024;-64
2021/04/04 03:17:43;;;;;;;4.35;2.10;;;7.00;92.70;;;;;;5058268;28;20113;-64
2021/04/04 03:20:12;;;;;;;3.30;2.08;;;6.90;93.10;;;;;;5052353;28;20031;-64
2021/04/04 03:22:40;;;;;;;3.08;1.90;;;6.90;92.80;;;;;;5065699;28;21119;-64
2021/04/04 03:25:08;;;;;;;3.45;1.80;;;7.00;93.60;;;;;;5065994;28;20040;-64
2021/04/04 03:27:39;;;;;;;3.85;1.88;;;6.90;93.70;;;;;;5059806;28;20569;-64
2021/04/04 03:30:07;;;;;;;3.17;1.73;;;6.90;93.70;;;;;;5045613;28;20087;-63
2021/04/04 03:32:38;;;;;;;2.50;1.85;;;6.90;94.10;;;;;;5044788;28;20112;-63
2021/04/04 03:35:06;;;;;;;3.40;1.63;;;7.10;92.50;;;;;;5045727;28;20029;-64
2021/04/04 03:37:32;;;;;;;2.33;1.60;;;7.00;92.30;;;;;;5045518;28;20471;-64
2021/04/04 03:39:58;;;;;;;3.33;1.80;;;6.80;92.70;;;;;;5045851;28;20053;-64
2021/04/04 03:42:27;;;;;;;3.05;1.52;;;6.80;93.00;;;;;;5064908;28;20064;-64
2021/04/04 03:44:57;;;;;;;3.38;1.67;;;6.80;93.00;;;;;;5065796;28;20034;-64
2021/04/04 03:47:23;;;;;;;3.63;1.70;;;6.80;93.30;;;;;;5062155;28;20488;-64
2021/04/04 03:49:49;;;;;;;3.25;2.00;;;6.70;93.50;;;;;;5044810;28;20040;-64
2021/04/04 03:52:15;;;;;;;3.67;1.90;;;6.60;93.50;;;;;;5046320;28;20075;-64
2021/04/04 03:54:43;;;;;;;4.20;1.70;;;6.60;93.40;;;;;;5049145;28;20064;-64
2021/04/04 03:57:10;;;;;;;3.70;1.83;;;6.60;93.00;;;;;;5049023;28;20024;-64
2021/04/04 03:59:39;;;;;;;2.45;1.50;;;6.70;92.60;;;;;;5049001;28;20060;-64
2021/04/04 04:02:06;;;;;;;2.55;1.67;;;6.70;92.40;;;;;;5049035;28;20035;-64
2021/04/04 04:04:32;;;;;;;3.03;1.52;;;6.70;92.00;;;;;;5049234;28;20029;-64
2021/04/04 04:07:00;;;;;;;3.05;1.40;;;6.80;91.60;;;;;;5047092;28;20029;-64
2021/04/04 04:09:26;;;;;;;2.20;1.52;;;6.90;91.70;;;;;;5049081;28;20029;-64
2021/04/04 04:11:54;;;;;;;1.83;1.38;;;6.70;92.50;;;;;;5057984;28;20505;-64
2021/04/04 04:14:22;;;;;;;3.50;1.65;;;6.50;93.00;;;;;;5068659;28;20020;-64
2021/04/04 04:16:48;;;;;;;3.17;1.10;;;6.70;92.90;;;;;;5067684;28;20078;-64
2021/04/04 04:19:16;;;;;;;2.00;1.45;;;6.60;92.80;;;;;;5049669;28;20021;-64
2021/04/04 04:21:43;;;;;;;2.35;1.30;;;6.70;92.20;;;;;;5053913;28;20039;-63
2021/04/04 04:24:16;;;;;;;2.30;1.55;;;6.60;91.90;;;;;;5068923;28;20099;-63
2021/04/04 04:26:46;;;;;;;1.45;1.25;;;6.60;91.80;;;;;;5068711;28;20032;-64
2021/04/04 04:29:13;;;;;;;4.40;1.60;;;6.50;91.80;;;;;;5065354;28;20067;-64
2021/04/04 04:31:42;;;;;;;1.30;1.20;;;6.70;91.60;;;;;;5047013;28;20511;-64
2021/04/04 04:34:09;;;;;;;2.28;1.33;;;6.70;91.70;;;;;;5048812;28;20029;-64
2021/04/04 04:36:37;;;;;;;3.95;1.63;;;6.60;91.80;;;;;;5048498;28;20032;-64
2021/04/04 04:39:04;;;;;;;2.78;1.60;;;6.60;92.70;;;;;;5048629;28;20024;-64
2021/04/04 04:41:37;;;;;;;2.70;1.60;;;6.50;92.80;;;;;;5068360;28;20029;-64
2021/04/04 04:44:05;;;;;;;3.47;1.63;;;6.50;93.40;;;;;;5068234;28;20052;-64
2021/04/04 04:46:32;;;;;;;2.38;1.52;;;6.50;93.60;;;;;;5067605;28;20108;-64
2021/04/04 04:49:00;;;;;;;3.00;1.60;;;6.50;93.80;;;;;;5067046;28;20027;-64
2021/04/04 04:51:26;;;;;;;2.03;1.70;;;6.40;93.70;;;;;;5067430;28;20042;-64
2021/04/04 04:53:52;;;;;;;2.97;2.00;;;6.30;94.00;;;;;;5068013;28;20021;-64
2021/04/04 04:56:19;;;;;;;2.97;1.40;;;6.50;92.50;;;;;;5068130;28;20135;-63
2021/04/04 04:58:46;;;;;;;3.28;1.70;;;6.50;92.00;;;;;;5068641;28;20074;-64
2021/04/04 05:01:21;;;;;;;2.65;1.75;;;6.40;92.10;;;;;;5049261;28;20025;-64
2021/04/04 05:03:50;;;;;;;2.28;1.50;;;6.40;91.80;;;;;;5048341;28;20068;-64
2021/04/04 05:06:19;;;;;;;2.90;1.75;;;6.40;91.70;;;;;;5047871;28;20029;-64
2021/04/04 05:08:45;;;;;;;2.47;1.58;;;6.40;91.80;;;;;;5048169;28;20063;-64
2021/04/04 05:11:13;;;;;;;2.65;1.45;;;6.40;92.10;;;;;;5047453;28;20033;-64
2021/04/04 05:13:41;;;;;;;2.20;1.50;;;6.50;91.70;;;;;;5047665;28;20120;-64
2021/04/04 05:16:11;;;;;;;3.13;1.42;;;6.60;91.50;;;;;;5047894;28;20048;-64
2021/04/04 05:18:37;;;;;;;3.15;1.92;;;6.70;91.00;;;;;;5056555;28;20036;-64
2021/04/04 05:21:04;;;;;;;2.95;1.23;;;6.70;90.70;;;;;;5056253;28;20024;-64
2021/04/04 05:23:30;;;;;;;3.22;1.73;;;6.60;91.30;;;;;;5067386;28;20081;-64
2021/04/04 05:25:56;;;;;;;3.03;1.67;;;6.60;91.10;;;;;;5067680;28;20549;-64
2021/04/04 05:28:22;;;;;;;3.30;1.63;;;6.60;91.40;;;;;;5067544;28;20036;-64
2021/04/04 05:30:48;;;;;;;2.00;1.45;;;6.50;92.00;;;;;;5056780;28;20047;-64
2021/04/04 05:33:14;;;;;;;3.33;1.60;;;6.50;92.80;;;;;;5048000;28;20372;-64
2021/04/04 05:35:42;;;;;;;2.90;1.67;;;6.50;92.70;;;;;;5047222;28;20027;-64
2021/04/04 05:38:09;;;;;;;4.43;1.52;;;6.50;92.30;;;;;;5047594;28;20494;-64
2021/04/04 05:40:35;;;;;;;2.85;1.38;;;6.50;92.00;;;;;;5046763;28;20039;-64
2021/04/04 05:43:05;;;;;;;2.22;1.60;;;6.50;92.20;;;;;;5047340;28;20032;-64
2021/04/04 05:45:55;;;;;;;1.42;1.33;;;6.60;92.30;;;;;;5047114;28;20438;-64
2021/04/04 05:48:41;;;;;;;3.78;1.73;;;6.50;92.90;;;;;;5047325;28;20479;-65
2021/04/04 05:51:18;;;;;;;3.63;1.60;;;6.40;93.60;;;;;;5054858;28;20059;-64
2021/04/04 05:54:13;;;;;;;2.60;1.55;;;6.30;94.30;;;;;;5048475;28;20551;-64
2021/04/04 05:56:45;;;;;;;4.55;1.85;;;6.30;94.80;;;;;;5048186;28;20054;-63
2021/04/04 05:59:22;;;;;;;3.15;1.73;;;6.50;94.30;;;;;;5063473;28;20036;-63
2021/04/04 06:02:03;;;;;;;2.25;1.50;;;6.50;93.60;;;;;;5052486;28;20056;-64
2021/04/04 06:04:53;;;;;;;4.10;1.83;;;6.40;93.80;;;;;;5046090;28;20037;-64
2021/04/04 06:07:32;;;;;;;2.03;1.35;;;6.40;93.70;;;;;;5047194;28;20413;-63
2021/04/04 06:10:11;;;;;;;2.10;1.48;;;6.40;94.10;;;;;;5047627;28;20025;-64
2021/04/04 06:12:37;;;;;;;1.58;1.30;;;6.50;93.10;;;;;;5056915;28;20029;-65
2021/04/04 06:15:21;;;;;;;1.95;1.38;;;6.50;93.70;;;;;;5063603;28;20033;-66
2021/04/04 06:18:21;;;;;;;2.35;1.48;;;6.50;93.30;;;;;;5053107;28;20029;-65
2021/04/04 06:21:03;;;;;;;2.53;1.65;;;6.60;93.10;;;;;;5047094;28;20040;-64
2021/04/04 06:23:45;;;;;;;2.17;1.40;;;6.70;92.40;;;;;;5050992;28;20024;-64
2021/04/04 06:26:39;;;;;;;3.22;1.80;;;6.70;93.10;;;;;;5056552;28;20033;-64
2021/04/04 06:29:15;;;;;;;1.85;1.38;;;6.80;92.60;;;;;;5046690;28;20059;-64
2021/04/04 06:32:07;;;;;;;2.03;1.40;;;6.80;92.50;;;;;;5049366;28;20047;-64
2021/04/04 06:34:36;;;;;;;3.88;1.50;;;7.00;91.80;;;;;;5046303;28;20090;-64
2021/04/04 06:37:32;;;;;;;2.45;1.50;;;7.10;91.80;;;;;;5053544;28;20021;-64
2021/04/04 06:40:12;;;;;;;3.88;1.30;;;7.10;91.00;;;;;;5066511;28;20029;-64
2021/04/04 06:42:44;;;;;;;3.47;1.60;;;7.10;90.90;;;;;;5065955;28;20029;-64
2021/04/04 06:45:19;;;;;;;2.65;1.67;;;7.10;90.60;;;;;;5062030;28;20033;-64
2021/04/04 06:48:05;;;;;;;2.60;1.65;;;7.10;90.30;;;;;;5046689;28;20044;-63
2021/04/04 06:50:37;;;;;;;7.10;2.63;;;7.00;90.30;;;;;;5044099;28;20033;-64
2021/04/04 06:53:23;;;;;;;6.50;3.67;;;7.20;90.10;;;;;;5045728;28;20033;-64
2021/04/04 06:56:10;;;;;;;9.60;4.43;;;7.20;89.90;;;;;;5050121;28;20376;-63
2021/04/04 06:58:43;;;;;;;9.43;4.78;;;7.10;90.10;;;;;;5047098;28;20029;-64
2021/04/04 07:01:45;;;;;;;7.75;4.43;;;6.90;90.00;;;;;;5051092;28;20014;-64
2021/04/04 07:04:12;;;;;;;8.95;5.05;;;6.90;90.60;;;;;;5051565;28;20514;-64
2021/04/04 07:06:57;;;;;;;7.97;4.53;;;7.10;90.20;;;;;;5057447;28;20098;-64
2021/04/04 07:09:53;;;;;;;7.93;4.00;;;7.30;88.80;;;;;;5044246;28;20415;-63
2021/04/04 07:12:33;;;;;;;5.95;3.47;;;7.50;88.20;;;;;;5053842;28;20036;-64
2021/04/04 07:15:27;;;;;;;4.13;2.60;;;7.50;88.10;;;;;;5045349;28;20048;-64
2021/04/04 07:18:05;;;;;;;4.60;2.10;;;7.60;88.20;;;;;;5054089;28;20559;-64
2021/04/04 07:21:21;;;;;;;3.55;2.13;;;7.50;87.40;;;;;;5044369;28;20021;-64
2021/04/04 07:24:29;;;;;;;4.45;1.98;;;7.70;87.70;;;;;;5062859;28;20044;-64
2021/04/04 07:27:17;;;;;;;3.42;1.63;;;7.80;86.60;;;;;;5064524;28;20217;-59
2021/04/04 07:29:55;;;;;;;2.92;1.70;;;7.70;86.70;;;;;;5063326;28;20063;-59
2021/04/04 07:32:41;;;;;;;4.63;1.70;;;7.90;88.10;;;;;;5049133;28;20131;-59
2021/04/04 07:35:16;;;;;;;2.47;1.40;;;8.00;86.00;;;;;;5056037;28;20040;-59
2021/04/04 07:38:01;;;;;;;3.08;1.67;;;8.10;86.70;;;;;;5048645;28;20107;-59
2021/04/04 07:40:36;;;;;;;2.03;1.45;;;8.20;85.70;;;;;;5049572;28;20096;-59
2021/04/04 07:43:09;;;;;;;5.18;2.65;;;8.20;85.90;;;;;;5049634;28;20024;-59
2021/04/04 07:45:37;;;;;;;6.53;3.08;;;8.00;85.30;;;;;;5049865;28;20446;-59
2021/04/04 07:48:32;;;;;;;5.70;2.55;;;8.00;85.50;;;;;;5050272;28;20025;-60
2021/04/04 07:51:12;;;;;;;3.85;2.30;;;8.00;84.40;;;;;;5067626;28;20460;-59
2021/04/04 07:54:04;;;;;;;5.07;2.40;;;8.00;85.60;;;;;;5068770;28;20469;-56
2021/04/04 07:56:53;;;;;;;3.03;1.95;;;8.00;85.50;;;;;;5056907;28;20044;-57
2021/04/04 07:59:31;;;;;;;2.90;2.03;;;8.00;85.20;;;;;;5049568;28;20021;-58
2021/04/04 08:02:10;;;;;;;3.30;1.98;;;7.80;85.90;;;;;;5050584;28;20037;-58
2021/04/04 08:04:46;;;;;;;2.63;1.80;;;8.10;86.40;;;;;;5049355;28;20028;-58
2021/04/04 08:07:23;;;;;;;3.67;1.58;;;8.20;85.20;;;;;;5049486;28;20059;-58
2021/04/04 08:10:10;;;;;;;4.13;2.22;;;8.40;84.70;;;;;;5058678;28;20037;-58
2021/04/04 08:13:19;;;;;;;2.80;1.35;;;8.20;84.40;;;;;;5053509;28;20124;-58
2021/04/04 08:15:49;;;;;;;2.67;1.40;;;8.20;85.00;;;;;;5064406;28;20040;-58
2021/04/04 08:18:14;;;;;;;1.48;1.20;;;8.20;87.40;;;;;;5070192;28;20545;-57
2021/04/04 08:20:49;;;;;;;1.85;1.33;;;8.30;84.60;;;;;;5069021;28;20032;-59
2021/04/04 08:23:35;;;;;;;2.35;1.42;;;8.40;84.60;;;;;;5067901;28;20612;-59
2021/04/04 08:26:14;;;;;;;4.25;1.98;;;8.40;85.50;;;;;;5063553;28;20361;-58
2021/04/04 08:28:45;;;;;;;2.33;1.40;;;8.50;85.40;;;;;;5064235;28;20035;-58
2021/04/04 08:31:39;;;;;;;3.42;1.58;;;8.40;84.30;;;;;;5056100;28;20458;-58
2021/04/04 08:34:43;;;;;;;2.70;1.50;;;8.70;84.30;;;;;;5049037;28;20063;-58
2021/04/04 08:37:19;;;;;;;2.57;1.10;;;8.50;84.80;;;;;;5048493;28;20021;-58
2021/04/04 08:39:53;;;;;;;2.00;1.38;;;8.50;84.80;;;;;;5050333;28;20317;-58
2021/04/04 08:42:19;;;;;;;4.10;1.52;;;8.50;84.80;;;;;;5064825;28;20025;-57
2021/04/04 08:44:53;;;;;;;2.67;1.55;;;8.40;84.80;;;;;;5048795;28;20056;-58
2021/04/04 08:47:38;;;;;;;2.28;1.20;;;8.70;84.70;;;;;;5048870;28;20075;-58
2021/04/04 08:50:07;;;;;;;3.40;1.42;;;8.70;84.10;;;;;;5050932;28;20107;-58
2021/04/04 08:52:54;;;;;;;2.70;1.55;;;8.60;83.90;;;;;;5062192;28;20104;-58
2021/04/04 08:55:26;;;;;;;1.33;1.10;;;8.70;84.60;;;;;;5063860;28;20028;-58
2021/04/04 08:57:54;;;;;;;2.53;1.77;;;8.70;84.70;;;;;;5059956;28;20013;-58
2021/04/04 09:00:26;;;;;;;3.10;1.58;;;8.70;83.40;;;;;;5047993;28;20056;-58
2021/04/04 09:02:59;;;;;;;4.70;1.95;;;8.80;83.30;;;;;;5061379;28;20013;-58
2021/04/04 09:05:28;;;;;;;2.47;1.63;;;8.70;82.90;;;;;;5048093;28;20025;-57
2021/04/04 09:08:03;;;;;;;3.95;1.75;;;8.80;83.20;;;;;;5048078;28;20037;-57
2021/04/04 09:10:31;;;;;;;2.45;1.30;;;8.90;83.40;;;;;;5048123;28;20052;-58
2021/04/04 09:12:59;;;;;;;2.92;1.42;;;8.70;82.10;;;;;;5051563;28;20017;-57
2021/04/04 09:15:27;;;;;;;1.33;1.20;;;8.80;82.50;;;;;;5053633;28;20033;-58
2021/04/04 09:17:57;;;;;;;3.35;1.88;;;8.80;81.50;;;;;;5047978;28;20025;-58
2021/04/04 09:20:40;;;;;;;2.03;1.50;;;8.80;81.20;;;;;;5051080;28;20110;-58
2021/04/04 09:23:06;;;;;;;3.10;1.90;;;9.00;81.00;;;;;;5048149;28;20047;-58
2021/04/04 09:25:36;;;;;;;7.85;3.85;;;9.10;81.10;;;;;;5049688;28;20025;-58
2021/04/04 09:28:07;;;;;;;4.97;3.20;;;9.00;81.40;;;;;;5063625;28;20071;-58
2021/04/04 09:30:38;;;;;;;7.30;3.58;;;9.10;81.00;;;;;;5061028;28;20025;-58
2021/04/04 09:33:08;;;;;;;4.30;2.40;;;9.20;82.30;;;;;;5051034;28;20023;-58
2021/04/04 09:35:35;;;;;;;3.90;2.08;;;9.50;81.40;;;;;;5047566;28;20024;-58
2021/04/04 09:38:09;;;;;;;5.47;3.03;;;9.80;82.20;;;;;;5048152;28;20102;-58
2021/04/04 09:40:35;;;;;;;8.40;3.88;;;9.70;79.40;;;;;;5047301;28;20100;-58
2021/04/04 09:43:19;;;;;;;5.18;2.75;;;9.70;79.70;;;;;;5047808;28;20699;-58
2021/04/04 09:45:45;;;;;;;7.17;3.20;;;9.70;78.80;;;;;;5052103;28;20025;-58
2021/04/04 09:48:24;;;;;;;4.43;2.58;;;9.70;79.00;;;;;;5047699;28;20036;-58
2021/04/04 09:51:12;;;;;;;3.38;1.90;;;9.70;78.70;;;;;;5046517;28;20399;-58
2021/04/04 09:53:45;;;;;;;4.43;1.95;;;9.80;78.80;;;;;;5058335;28;20031;-58
2021/04/04 09:56:13;;;;;;;3.55;1.80;;;9.90;79.00;;;;;;5047575;28;20052;-58
2021/04/04 09:58:40;;;;;;;2.20;1.48;;;10.10;77.50;;;;;;5065133;28;20977;-57
2021/04/04 10:01:19;;;;;;;3.60;2.00;;;10.10;77.70;;;;;;5061030;28;20024;-57
2021/04/04 10:04:04;;;;;;;5.80;2.63;;;10.10;78.40;;;;;;5059467;28;20079;-56
2021/04/04 10:06:31;;;;;;;8.25;3.78;;;10.30;78.80;;;;;;5065523;28;20055;-57
2021/04/04 10:09:00;;;;;;;6.22;3.30;;;10.30;78.00;;;;;;5055094;28;20066;-57
2021/04/04 10:11:27;;;;;;;7.18;3.47;;;10.20;76.70;;;;;;5064429;28;20212;-57
2021/04/04 10:14:09;;;;;;;5.85;2.40;;;10.20;78.00;;;;;;5048124;28;20066;-57
2021/04/04 10:16:35;;;;;;;5.53;2.70;;;10.50;76.90;;;;;;5050339;28;20551;-57
2021/04/04 10:19:20;;;;;;;4.72;2.30;;;10.50;76.60;;;;;;5050964;28;20127;-58
2021/04/04 10:21:57;;;;;;;4.28;2.00;;;10.60;76.70;;;;;;5046780;28;20024;-58
2021/04/04 10:24:28;;;;;;;2.85;1.85;;;10.80;78.60;;;;;;5047161;28;20029;-57
2021/04/04 10:27:19;;;;;;;3.17;1.73;;;11.00;75.90;;;;;;5047163;28;20021;-57
2021/04/04 10:29:47;;;;;;;4.35;2.20;;;10.90;76.00;;;;;;5053894;28;20402;-57
2021/04/04 10:32:13;;;;;;;8.25;3.83;;;10.90;75.80;;;;;;5066764;28;20031;-57
2021/04/04 10:34:46;;;;;;;7.55;3.00;;;11.00;75.50;;;;;;5066457;28;20495;-57
2021/04/04 10:37:12;;;;;;;5.35;2.50;;;10.80;75.40;;;;;;5048425;28;20033;-57
2021/04/04 10:39:38;;;;;;;4.88;2.67;;;10.90;76.20;;;;;;5056793;28;20035;-57
2021/04/04 10:42:14;;;;;;;5.68;2.47;;;11.10;75.80;;;;;;5053808;28;20150;-58
2021/04/04 10:44:40;;;;;;;3.53;2.00;;;11.60;75.40;;;;;;5049840;28;20028;-58
2021/04/04 10:47:22;;;;;;;3.20;2.00;;;11.70;73.70;;;;;;5050446;28;20106;-57
2021/04/04 10:49:49;;;;;;;2.70;1.90;;;11.80;72.30;;;;;;5051127;28;20530;-58
2021/04/04 10:52:15;;;;;;;2.60;1.60;;;11.40;72.60;;;;;;5066192;28;20452;-58
2021/04/04 10:54:42;;;;;;;4.55;2.63;;;11.80;73.90;;;;;;5062880;28;20040;-59
2021/04/04 10:57:09;;;;;;;11.23;6.05;;;11.90;72.70;;;;;;5085959;28;20490;-57
2021/04/04 10:59:35;;;;;;;20.45;9.82;;;11.60;72.70;;;;;;5066363;28;20415;-57
2021/04/04 11:02:02;;;;;;;19.67;9.52;;;11.60;73.90;;;;;;5048225;28;20170;-57
2021/04/04 11:04:31;;;;;;;10.65;5.60;;;11.70;72.60;;;;;;5052927;28;20033;-57
2021/04/04 11:07:00;;;;;;;7.68;4.70;;;11.70;71.60;;;;;;5054775;28;20032;-58
2021/04/04 11:09:26;;;;;;;7.15;3.67;;;11.70;71.20;;;;;;5048793;28;20043;-57
2021/04/04 11:11:59;;;;;;;9.70;5.00;;;11.80;71.20;;;;;;5064480;28;20017;-57
2021/04/04 11:14:26;;;;;;;6.78;4.05;;;11.70;70.00;;;;;;5052262;28;20036;-57
2021/04/04 11:16:57;;;;;;;7.70;3.58;;;11.90;71.90;;;;;;5060586;28;20093;-57
2021/04/04 11:19:25;;;;;;;5.50;3.08;;;11.80;70.80;;;;;;5046358;28;20021;-58
2021/04/04 11:21:53;;;;;;;5.18;2.53;;;12.00;71.00;;;;;;5052894;28;20017;-57
2021/04/04 11:24:24;;;;;;;5.28;2.65;;;12.40;70.60;;;;;;5060054;28;20063;-57
2021/04/04 11:26:52;;;;;;;2.80;1.80;;;12.20;69.00;;;;;;5046452;28;20025;-57
2021/04/04 11:29:17;;;;;;;3.63;1.80;;;12.70;69.70;;;;;;5045975;28;20055;-58
2021/04/04 11:31:45;;;;;;;2.58;1.60;;;12.70;68.20;;;;;;5058652;28;20024;-57
2021/04/04 11:34:31;;;;;;;1.83;1.40;;;13.00;67.70;;;;;;5063998;28;20095;-57
2021/04/04 11:37:04;;;;;;;2.13;1.65;;;12.90;66.60;;;;;;5048957;28;20044;-58
2021/04/04 11:39:33;;;;;;;1.35;1.00;;;13.10;67.30;;;;;;5045887;28;20365;-57
2021/04/04 11:42:03;;;;;;;5.25;2.33;;;13.10;65.50;;;;;;5045851;28;20062;-57
2021/04/04 11:44:35;;;;;;;3.80;1.95;;;13.00;66.40;;;;;;5046009;28;20032;-57
2021/04/04 11:47:21;;;;;;;2.83;1.73;;;13.30;67.30;;;;;;5045634;28;20029;-59
2021/04/04 11:49:54;;;;;;;2.92;1.85;;;13.50;67.10;;;;;;5047817;28;20033;-57
2021/04/04 11:52:22;;;;;;;2.60;1.60;;;13.50;66.90;;;;;;5047971;28;20014;-57
2021/04/04 11:54:52;;;;;;;2.75;1.70;;;13.80;67.20;;;;;;5062642;28;20044;-57
2021/04/04 11:57:26;;;;;;;2.78;2.13;;;14.10;67.70;;;;;;5065908;28;20391;-58
2021/04/04 12:00:10;;;;;;;2.42;1.92;;;14.30;65.70;;;;;;5063678;28;20020;-58
2021/04/04 12:02:39;;;;;;;2.27;1.50;;;14.10;61.50;;;;;;5053358;28;20032;-58
2021/04/04 12:05:11;;;;;;;2.80;1.80;;;14.40;65.70;;;;;;5056703;28;20295;-57
2021/04/04 12:08:00;;;;;;;3.30;1.92;;;14.40;64.10;;;;;;5051170;28;20037;-57
2021/04/04 12:10:27;;;;;;;2.92;2.20;;;14.70;66.10;;;;;;5049229;28;20758;-57
2021/04/04 12:12:53;;;;;;;6.50;3.50;;;14.70;62.10;;;;;;5063039;28;20028;-57
2021/04/04 12:15:24;;;;;;;3.55;2.50;;;14.10;62.20;;;;;;5056981;28;20017;-58
2021/04/04 12:17:58;;;;;;;3.83;1.98;;;14.40;64.40;;;;;;5058285;28;20043;-57
2021/04/04 12:20:32;;;;;;;6.20;2.53;;;14.70;63.10;;;;;;5050913;28;20463;-57
2021/04/04 12:22:58;;;;;;;;;;;14.70;63.30;;;;;;5049918;28;20024;-57
2021/04/04 12:25:26;;;;;;;2.97;1.92;;;14.70;62.60;;;;;;5049662;28;19986;-57
2021/04/04 12:27:53;;;;;;;3.97;2.90;;;15.00;62.40;;;;;;5068152;28;20582;-57
2021/04/04 12:30:29;;;;;;;3.22;1.98;;;14.70;61.90;;;;;;5053585;28;20057;-58
2021/04/04 12:33:11;;;;;;;3.28;1.98;;;14.90;61.90;;;;;;5048894;28;20047;-57
2021/04/04 12:35:47;;;;;;;1.92;1.40;;;15.20;61.50;;;;;;5049103;28;20043;-57
2021/04/04 12:38:30;;;;;;;3.50;1.70;;;15.80;63.40;;;;;;5059362;28;20033;-57
2021/04/04 12:40:58;;;;;;;3.80;1.70;;;15.70;59.00;;;;;;5059923;28;20090;-58
2021/04/04 12:43:24;;;;;;;2.97;1.80;;;15.40;59.90;;;;;;5058463;28;20051;-57
2021/04/04 12:45:50;;;;;;;2.30;1.50;;;15.60;59.70;;;;;;5060423;28;20100;-57
2021/04/04 12:48:21;;;;;;;3.63;1.95;;;15.60;60.40;;;;;;5057616;28;20039;-57
2021/04/04 12:50:56;;;;;;;4.07;2.10;;;15.50;60.80;;;;;;5058248;28;20107;-58
2021/04/04 12:53:24;;;;;;;1.65;1.23;;;15.80;60.40;;;;;;5055781;28;20040;-57
2021/04/04 12:55:50;;;;;;;1.73;1.42;;;16.20;59.20;;;;;;5048375;28;20024;-58
2021/04/04 12:58:16;;;;;;;1.33;1.00;;;16.10;59.10;;;;;;5065264;28;20032;-58
2021/04/04 13:00:46;;;;;;;0.90;0.90;;;16.40;59.50;;;;;;5054939;28;20055;-58
2021/04/04 13:03:15;;;;;;;2.78;1.40;;;16.70;58.90;;;;;;5056080;28;20036;-57
2021/04/04 13:05:47;;;;;;;1.88;1.30;;;16.80;58.70;;;;;;5058328;28;20033;-57
2021/04/04 13:08:18;;;;;;;15.13;6.30;;;16.90;58.20;;;;;;5054321;28;20132;-57
2021/04/04 13:10:56;;;;;;;12.38;5.68;;;15.90;57.90;;;;;;5049326;28;20032;-58
2021/04/04 13:13:28;;;;;;;10.68;4.20;;;16.20;59.30;;;;;;5053580;28;20484;-57
2021/04/04 13:15:59;;;;;;;9.45;4.38;;;16.40;58.70;;;;;;5052416;28;20031;-57
2021/04/04 13:18:26;;;;;;;5.50;3.10;;;16.80;58.80;;;;;;5059795;28;20060;-57
2021/04/04 13:20:55;;;;;;;5.68;2.95;;;16.80;59.20;;;;;;5050176;28;20029;-57
2021/04/04 13:23:21;;;;;;;16.27;6.68;;;16.90;58.60;;;;;;5060875;28;20051;-57